Time,TemperatureF,DewpointF,PressureIn,WindDirection,WindDirectionDegrees,WindSpeedMPH,WindSpeedGustMPH,Humidity,HourlyPrecipIn,Conditions,Clouds,dailyrainin,SoftwareType,DateUTC
2013-05-22 00:01:00,60.3,59.4,30.01,SSW,201,0.0,0.0,97,0.00,,,0.00,meteohub,2013-05-22 04:01:00,
2013-05-22 00:02:00,60.3,59.4,30.01,SSW,201,0.0,0.0,97,0.00,,,0.00,meteohub,2013-05-22 04:02:00,
2013-05-22 00:07:00,60.3,59.4,30.01,SSW,201,0.0,0.0,97,0.00,,,0.00,meteohub,2013-05-22 04:07:00,
2013-05-22 00:12:00,60.3,59.4,30.01,SSW,201,0.0,0.0,97,0.00,,,0.00,meteohub,2013-05-22 04:12:00,
2013-05-22 00:17:00,60.4,59.5,30.01,SSW,201,0.0,0.0,97,0.00,,,0.00,meteohub,2013-05-22 04:17:00,
2013-05-22 00:22:00,60.4,59.5,30.01,SSW,201,0.0,0.0,97,0.00,,,0.00,meteohub,2013-05-22 04:22:00,
2013-05-22 00:27:00,60.4,59.5,30.00,SSW,201,0.0,0.0,97,0.00,,,0.00,meteohub,2013-05-22 04:27:00,
2013-05-22 00:32:00,60.3,59.4,30.00,SSW,201,0.0,0.0,97,0.00,,,0.00,meteohub,2013-05-22 04:32:00,
2013-05-22 00:37:00,60.3,59.4,29.99,SSW,203,0.0,0.0,97,0.00,,,0.00,meteohub,2013-05-22 04:37:00,
2013-05-22 00:42:00,60.3,59.4,29.99,SSW,201,0.0,0.0,97,0.00,,,0.00,meteohub,2013-05-22 04:42:00,
2013-05-22 00:47:00,60.3,59.4,29.99,SSW,201,0.0,0.0,97,0.00,,,0.00,meteohub,2013-05-22 04:47:00,
2013-05-22 00:52:00,60.1,59.2,29.99,SSW,201,0.0,0.0,97,0.00,,,0.00,meteohub,2013-05-22 04:52:00,
2013-05-22 00:57:00,60.1,59.2,29.99,SSW,201,0.0,0.0,97,0.00,,,0.00,meteohub,2013-05-22 04:57:00,
2013-05-22 01:02:00,59.9,59.0,29.99,SSW,201,0.0,0.0,97,0.00,,,0.00,meteohub,2013-05-22 05:02:00,
2013-05-22 01:07:00,59.9,59.0,29.99,SSW,201,0.0,0.0,97,0.00,,,0.00,meteohub,2013-05-22 05:07:00,
2013-05-22 01:12:00,59.9,59.0,30.00,SSW,201,0.0,0.0,97,0.00,,,0.00,meteohub,2013-05-22 05:12:00,
2013-05-22 01:17:00,60.1,59.2,29.99,SSW,201,0.0,0.0,97,0.00,,,0.00,meteohub,2013-05-22 05:17:00,
2013-05-22 01:22:00,60.1,59.2,29.99,SSW,201,0.0,0.0,97,0.00,,,0.00,meteohub,2013-05-22 05:22:00,
2013-05-22 01:27:00,60.3,59.4,29.99,SSW,201,0.0,0.0,97,0.00,,,0.00,meteohub,2013-05-22 05:27:00,
2013-05-22 01:32:00,60.3,59.4,29.99,SSW,201,0.0,0.0,97,0.00,,,0.00,meteohub,2013-05-22 05:32:00,
2013-05-22 01:37:00,60.3,59.4,29.99,SSW,201,0.0,0.0,97,0.00,,,0.00,meteohub,2013-05-22 05:37:00,
2013-05-22 01:43:00,60.3,59.4,29.99,SSW,203,0.0,0.0,97,0.00,,,0.00,meteohub,2013-05-22 05:43:00,
2013-05-22 01:47:00,60.3,59.4,29.99,SSW,201,0.0,0.0,97,0.00,,,0.00,meteohub,2013-05-22 05:47:00,
2013-05-22 01:53:00,60.4,59.5,29.99,SSW,201,0.0,0.0,97,0.00,,,0.00,meteohub,2013-05-22 05:53:00,
2013-05-22 01:58:00,60.4,59.5,29.98,SSW,201,0.0,0.0,97,0.00,,,0.00,meteohub,2013-05-22 05:58:00,
2013-05-22 02:03:00,60.4,59.5,29.98,SSW,201,0.0,0.0,97,0.00,,,0.00,meteohub,2013-05-22 06:03:00,
2013-05-22 02:08:00,60.4,59.5,29.98,SSW,201,0.0,0.0,97,0.00,,,0.00,meteohub,2013-05-22 06:08:00,
2013-05-22 02:13:00,60.3,59.4,29.98,SSW,201,0.0,0.0,97,0.00,,,0.00,meteohub,2013-05-22 06:13:00,
2013-05-22 02:18:00,60.1,59.2,29.98,SSW,201,0.0,0.0,97,0.00,,,0.00,meteohub,2013-05-22 06:18:00,
2013-05-22 02:23:00,60.1,59.2,29.99,SSW,201,0.0,0.0,97,0.00,,,0.00,meteohub,2013-05-22 06:23:00,
2013-05-22 02:28:00,59.9,59.0,29.99,SSW,201,0.0,0.0,97,0.00,,,0.00,meteohub,2013-05-22 06:28:00,
2013-05-22 02:33:00,60.1,59.5,29.98,SSW,201,0.0,0.0,98,0.00,,,0.00,meteohub,2013-05-22 06:33:00,
2013-05-22 02:38:00,60.4,59.9,29.98,SSW,201,0.0,0.0,98,0.00,,,0.00,meteohub,2013-05-22 06:38:00,
2013-05-22 02:43:00,60.8,60.3,29.98,SSW,201,0.0,0.0,98,0.00,,,0.00,meteohub,2013-05-22 06:43:00,
2013-05-22 02:48:00,61.0,60.4,29.98,SSW,201,0.0,0.0,98,0.00,,,0.00,meteohub,2013-05-22 06:48:00,
2013-05-22 02:53:00,61.0,60.4,29.97,SSW,201,0.0,0.0,98,0.00,,,0.00,meteohub,2013-05-22 06:53:00,
2013-05-22 02:58:00,61.2,60.6,29.97,SSW,201,0.0,0.0,98,0.00,,,0.00,meteohub,2013-05-22 06:58:00,
2013-05-22 03:03:00,61.5,61.0,29.97,SSW,201,0.0,0.0,98,0.00,,,0.00,meteohub,2013-05-22 07:03:00,
2013-05-22 03:08:00,61.9,61.3,29.96,SSW,201,0.0,0.0,98,0.00,,,0.00,meteohub,2013-05-22 07:08:00,
2013-05-22 03:13:00,61.9,61.3,29.96,SSW,201,0.0,0.0,98,0.00,,,0.00,meteohub,2013-05-22 07:13:00,
2013-05-22 03:18:00,61.9,61.3,29.96,SSW,201,0.0,0.0,98,0.00,,,0.00,meteohub,2013-05-22 07:18:00,
2013-05-22 03:23:00,61.9,61.3,29.95,SSW,201,0.0,0.0,98,0.00,,,0.00,meteohub,2013-05-22 07:23:00,
2013-05-22 03:28:00,61.5,60.6,29.95,SSW,201,0.0,0.0,97,0.00,,,0.00,meteohub,2013-05-22 07:28:00,
2013-05-22 03:33:00,61.3,60.4,29.94,SSW,201,0.0,0.0,97,0.00,,,0.00,meteohub,2013-05-22 07:33:00,
2013-05-22 03:41:00,61.2,60.6,29.94,SSW,201,0.0,0.0,98,0.00,,,0.00,meteohub,2013-05-22 07:41:00,
2013-05-22 03:46:00,61.0,60.4,29.94,SSW,201,0.0,0.0,98,0.00,,,0.00,meteohub,2013-05-22 07:46:00,
2013-05-22 03:51:00,61.0,60.4,29.94,SSW,203,0.0,0.0,98,0.00,,,0.00,meteohub,2013-05-22 07:51:00,
2013-05-22 03:56:00,61.0,60.4,29.94,SSE,167,0.0,0.0,98,0.00,,,0.00,meteohub,2013-05-22 07:56:00,
2013-05-22 04:01:00,61.0,60.4,29.94,South,180,0.0,0.0,98,0.00,,,0.00,meteohub,2013-05-22 08:01:00,
2013-05-22 04:06:00,61.0,60.4,29.94,South,179,0.0,0.0,98,0.00,,,0.00,meteohub,2013-05-22 08:06:00,
2013-05-22 04:11:00,61.0,60.4,29.94,South,179,0.0,0.0,98,0.00,,,0.00,meteohub,2013-05-22 08:11:00,
2013-05-22 04:16:00,61.2,60.6,29.94,South,186,0.0,0.0,98,0.00,,,0.00,meteohub,2013-05-22 08:16:00,
2013-05-22 04:21:00,61.2,60.6,29.93,SSW,204,0.0,0.0,98,0.00,,,0.00,meteohub,2013-05-22 08:21:00,
2013-05-22 04:26:00,61.0,60.4,29.93,SSW,204,0.0,0.0,98,0.00,,,0.00,meteohub,2013-05-22 08:26:00,
2013-05-22 04:31:00,60.6,59.7,29.93,SSW,204,0.0,0.0,97,0.00,,,0.00,meteohub,2013-05-22 08:31:00,
2013-05-22 04:36:00,60.3,59.4,29.93,SSW,204,0.0,0.0,97,0.00,,,0.00,meteohub,2013-05-22 08:36:00,
2013-05-22 04:41:00,59.9,59.0,29.93,SSW,204,0.0,0.0,97,0.00,,,0.00,meteohub,2013-05-22 08:41:00,
2013-05-22 04:46:00,59.7,58.8,29.94,SSW,204,0.0,0.0,97,0.00,,,0.00,meteohub,2013-05-22 08:46:00,
2013-05-22 04:51:00,59.5,58.6,29.94,SSW,205,0.0,0.0,97,0.00,,,0.00,meteohub,2013-05-22 08:51:00,
2013-05-22 04:56:00,59.5,58.6,29.94,SSW,204,0.0,0.0,97,0.00,,,0.00,meteohub,2013-05-22 08:56:00,
2013-05-22 05:01:00,59.4,58.8,29.94,SSW,204,0.0,0.0,98,0.00,,,0.00,meteohub,2013-05-22 09:01:00,
2013-05-22 05:06:00,59.4,58.8,29.94,SSW,204,0.0,0.0,98,0.00,,,0.00,meteohub,2013-05-22 09:06:00,
2013-05-22 05:11:00,59.5,59.0,29.94,SSW,205,0.0,0.0,98,0.00,,,0.00,meteohub,2013-05-22 09:11:00,
2013-05-22 05:16:00,59.7,59.2,29.94,SSE,158,0.0,0.0,98,0.00,,,0.00,meteohub,2013-05-22 09:16:00,
2013-05-22 05:21:00,59.5,59.0,29.94,SSE,158,0.0,0.0,98,0.00,,,0.00,meteohub,2013-05-22 09:21:00,
2013-05-22 05:26:00,59.5,59.0,29.94,SSE,158,0.0,0.0,98,0.00,,,0.00,meteohub,2013-05-22 09:26:00,
2013-05-22 05:31:00,59.5,59.0,29.94,SSE,158,0.0,0.0,98,0.00,,,0.00,meteohub,2013-05-22 09:31:00,
2013-05-22 05:36:00,59.7,59.2,29.94,SSE,158,0.0,0.0,98,0.00,,,0.00,meteohub,2013-05-22 09:36:00,
2013-05-22 05:41:00,59.9,59.4,29.94,SSE,158,0.0,0.0,98,0.00,,,0.00,meteohub,2013-05-22 09:41:00,
2013-05-22 05:46:00,60.1,59.5,29.94,SSE,158,0.0,0.0,98,0.00,,,0.00,meteohub,2013-05-22 09:46:00,
2013-05-22 05:51:00,59.9,59.4,29.94,SSE,158,0.0,0.0,98,0.00,,,0.00,meteohub,2013-05-22 09:51:00,
2013-05-22 05:56:00,59.7,59.2,29.95,SSE,158,0.0,0.0,98,0.00,,,0.00,meteohub,2013-05-22 09:56:00,
2013-05-22 06:01:00,59.9,59.4,29.95,SSE,158,0.0,0.0,98,0.00,,,0.00,meteohub,2013-05-22 10:01:00,
2013-05-22 06:06:00,60.1,59.5,29.96,SSE,159,0.0,0.0,98,0.00,,,0.00,meteohub,2013-05-22 10:06:00,
2013-05-22 06:11:00,60.4,59.9,29.96,NW,315,0.0,2.0,98,0.00,,,0.00,meteohub,2013-05-22 10:11:00,
2013-05-22 06:16:00,60.8,60.3,29.97,WNW,301,0.0,2.0,98,0.00,,,0.00,meteohub,2013-05-22 10:16:00,
2013-05-22 06:21:00,61.0,60.4,29.97,NNW,332,0.0,2.0,98,0.00,,,0.00,meteohub,2013-05-22 10:21:00,
2013-05-22 06:26:00,61.0,60.4,29.97,NNW,332,0.0,2.0,98,0.00,,,0.00,meteohub,2013-05-22 10:26:00,
2013-05-22 06:31:00,61.2,60.6,29.96,NNW,333,0.0,1.0,98,0.00,,,0.00,meteohub,2013-05-22 10:31:00,
2013-05-22 06:36:00,61.2,60.6,29.96,NNW,333,0.0,0.0,98,0.00,,,0.00,meteohub,2013-05-22 10:36:00,
2013-05-22 06:41:00,61.2,60.6,29.96,NNW,333,0.0,0.0,98,0.00,,,0.00,meteohub,2013-05-22 10:41:00,
2013-05-22 06:46:00,61.2,60.6,29.96,WNW,297,0.0,0.0,98,0.00,,,0.00,meteohub,2013-05-22 10:46:00,
2013-05-22 06:51:00,61.2,60.6,29.96,West,278,0.0,0.0,98,0.00,,,0.00,meteohub,2013-05-22 10:51:00,
2013-05-22 06:56:00,61.2,60.6,29.96,West,278,0.0,0.0,98,0.00,,,0.00,meteohub,2013-05-22 10:56:00,
2013-05-22 07:02:00,61.0,60.4,29.96,West,281,0.0,0.0,98,0.00,,,0.00,meteohub,2013-05-22 11:02:00,
2013-05-22 07:07:00,61.2,60.6,29.96,West,281,0.0,0.0,98,0.00,,,0.00,meteohub,2013-05-22 11:07:00,
2013-05-22 07:12:00,61.5,61.0,29.96,West,281,0.0,0.0,98,0.00,,,0.00,meteohub,2013-05-22 11:12:00,
2013-05-22 07:17:00,61.5,61.0,29.97,NE,41,0.0,1.0,98,0.00,,,0.00,meteohub,2013-05-22 11:17:00,
2013-05-22 07:22:00,61.9,61.3,29.96,North,354,0.0,1.0,98,0.00,,,0.00,meteohub,2013-05-22 11:22:00,
2013-05-22 07:27:00,62.2,61.7,29.97,NNW,340,0.0,1.0,98,0.00,,,0.00,meteohub,2013-05-22 11:27:00,
2013-05-22 07:32:00,62.6,62.1,29.97,WNW,293,0.0,1.0,98,0.00,,,0.00,meteohub,2013-05-22 11:32:00,
2013-05-22 07:37:00,63.0,62.1,29.97,WNW,294,0.0,2.0,97,0.00,,,0.00,meteohub,2013-05-22 11:37:00,
2013-05-22 07:42:00,63.3,62.4,29.97,NW,312,0.0,2.0,97,0.00,,,0.00,meteohub,2013-05-22 11:42:00,
2013-05-22 07:47:00,63.5,62.4,29.97,NW,311,0.0,2.0,96,0.00,,,0.00,meteohub,2013-05-22 11:47:00,
2013-05-22 07:52:00,63.9,62.8,29.97,WSW,247,0.0,1.0,96,0.00,,,0.00,meteohub,2013-05-22 11:52:00,
2013-05-22 07:57:00,64.4,63.0,29.97,NW,317,0.0,1.0,95,0.00,,,0.00,meteohub,2013-05-22 11:57:00,
2013-05-22 08:02:00,64.9,63.1,29.97,NW,307,0.0,1.0,94,0.00,,,0.00,meteohub,2013-05-22 12:02:00,
2013-05-22 08:07:00,65.7,63.5,29.97,NNW,340,0.0,1.0,93,0.00,,,0.00,meteohub,2013-05-22 12:07:00,
2013-05-22 08:12:00,66.2,63.5,29.97,West,265,0.0,1.0,91,0.00,,,0.00,meteohub,2013-05-22 12:12:00,
2013-05-22 08:17:00,66.7,63.3,29.97,WNW,300,0.0,1.0,89,0.00,,,0.00,meteohub,2013-05-22 12:17:00,
2013-05-22 08:22:00,67.3,63.7,29.97,WSW,255,0.0,1.0,88,0.00,,,0.00,meteohub,2013-05-22 12:22:00,
2013-05-22 08:27:00,67.6,63.7,29.97,SE,134,0.0,1.0,87,0.00,,,0.00,meteohub,2013-05-22 12:27:00,
2013-05-22 08:32:00,68.2,63.5,29.97,West,278,0.0,1.0,85,0.00,,,0.00,meteohub,2013-05-22 12:32:00,
2013-05-22 08:37:00,68.5,63.5,29.97,South,179,0.0,1.0,84,0.00,,,0.00,meteohub,2013-05-22 12:37:00,
2013-05-22 08:42:00,68.7,63.3,29.97,South,190,0.0,2.0,83,0.00,,,0.00,meteohub,2013-05-22 12:42:00,
2013-05-22 08:47:00,69.3,63.9,29.97,SSW,201,0.0,2.0,83,0.00,,,0.00,meteohub,2013-05-22 12:47:00,
2013-05-22 08:52:00,69.6,64.2,29.97,WSW,254,0.0,4.0,83,0.00,,,0.00,meteohub,2013-05-22 12:52:00,
2013-05-22 08:57:00,69.6,63.9,29.97,SSW,205,0.0,4.0,82,0.00,,,0.00,meteohub,2013-05-22 12:57:00,
2013-05-22 09:02:00,70.0,64.2,29.97,WSW,242,0.0,2.0,82,0.00,,,0.00,meteohub,2013-05-22 13:02:00,
2013-05-22 09:07:00,70.3,64.2,29.96,SW,236,0.0,1.0,81,0.00,,,0.00,meteohub,2013-05-22 13:07:00,
2013-05-22 09:12:00,70.5,64.4,29.97,WSW,257,0.0,2.0,81,0.00,,,0.00,meteohub,2013-05-22 13:12:00,
2013-05-22 09:17:00,70.9,64.8,29.96,WNW,293,0.0,2.0,81,0.00,,,0.00,meteohub,2013-05-22 13:17:00,
2013-05-22 09:22:00,71.4,64.9,29.96,WNW,290,0.0,2.0,80,0.00,,,0.00,meteohub,2013-05-22 13:22:00,
2013-05-22 09:27:00,71.6,65.1,29.96,WSW,246,0.0,2.0,80,0.00,,,0.00,meteohub,2013-05-22 13:27:00,
2013-05-22 09:32:00,72.0,65.5,29.96,West,262,0.0,2.0,80,0.00,,,0.00,meteohub,2013-05-22 13:32:00,
2013-05-22 09:37:00,72.0,65.1,29.96,WSW,243,0.0,4.0,79,0.00,,,0.00,meteohub,2013-05-22 13:37:00,
2013-05-22 09:42:00,72.0,65.5,29.96,WNW,283,0.0,6.0,80,0.00,,,0.00,meteohub,2013-05-22 13:42:00,
2013-05-22 09:47:00,72.3,65.1,29.96,WNW,294,0.0,6.0,78,0.00,,,0.00,meteohub,2013-05-22 13:47:00,
2013-05-22 09:52:00,72.3,65.1,29.96,WNW,282,1.0,2.0,78,0.00,,,0.00,meteohub,2013-05-22 13:52:00,
2013-05-22 09:57:00,72.3,65.8,29.96,WNW,282,1.0,4.0,80,0.00,,,0.00,meteohub,2013-05-22 13:57:00,
2013-05-22 10:02:00,72.1,64.9,29.96,NW,307,1.0,5.0,78,0.00,,,0.00,meteohub,2013-05-22 14:02:00,
2013-05-22 10:07:00,72.5,65.3,29.96,SW,230,2.0,5.0,78,0.00,,,0.00,meteohub,2013-05-22 14:07:00,
2013-05-22 10:12:00,72.9,65.3,29.96,SSW,210,1.0,5.0,77,0.00,,,0.00,meteohub,2013-05-22 14:12:00,
2013-05-22 10:17:00,72.7,65.1,29.96,WNW,301,0.0,5.0,77,0.00,,,0.00,meteohub,2013-05-22 14:17:00,
2013-05-22 10:22:00,73.0,65.8,29.96,SW,225,1.0,5.0,78,0.00,,,0.00,meteohub,2013-05-22 14:22:00,
2013-05-22 10:27:00,73.6,65.5,29.96,WNW,284,2.0,5.0,76,0.00,,,0.00,meteohub,2013-05-22 14:27:00,
2013-05-22 10:32:00,73.4,65.3,29.96,NW,304,1.0,5.0,76,0.00,,,0.00,meteohub,2013-05-22 14:32:00,
2013-05-22 10:37:00,73.4,65.3,29.96,West,275,1.0,5.0,76,0.00,,,0.00,meteohub,2013-05-22 14:37:00,
2013-05-22 10:42:00,73.2,65.1,29.96,SSW,198,4.0,4.0,76,0.00,,,0.00,meteohub,2013-05-22 14:42:00,
2013-05-22 10:47:00,73.6,65.1,29.97,WNW,285,2.0,6.0,75,0.00,,,0.00,meteohub,2013-05-22 14:47:00,
2013-05-22 10:52:00,73.9,65.5,29.96,NW,309,0.0,6.0,75,0.00,,,0.00,meteohub,2013-05-22 14:52:00,
2013-05-22 10:57:00,73.9,65.1,29.96,WNW,297,1.0,6.0,74,0.00,,,0.00,meteohub,2013-05-22 14:57:00,
2013-05-22 11:02:00,73.9,66.2,29.96,NNE,20,0.0,4.0,77,0.00,,,0.00,meteohub,2013-05-22 15:02:00,
2013-05-22 11:07:00,74.7,65.8,29.97,NW,311,3.0,4.0,74,0.00,,,0.00,meteohub,2013-05-22 15:07:00,
2013-05-22 11:12:00,74.5,64.9,29.97,WNW,303,0.0,7.0,72,0.00,,,0.00,meteohub,2013-05-22 15:12:00,
2013-05-22 11:17:00,74.5,65.7,29.96,WSW,254,0.0,7.0,74,0.00,,,0.00,meteohub,2013-05-22 15:17:00,
2013-05-22 11:22:00,73.9,64.8,29.96,West,264,2.0,6.0,73,0.00,,,0.00,meteohub,2013-05-22 15:22:00,
2013-05-22 11:27:00,74.5,65.7,29.96,West,259,1.0,6.0,74,0.00,,,0.00,meteohub,2013-05-22 15:27:00,
2013-05-22 11:32:00,74.7,65.5,29.97,SE,138,0.0,6.0,73,0.00,,,0.00,meteohub,2013-05-22 15:32:00,
2013-05-22 11:37:00,74.7,65.5,29.97,ENE,70,0.0,7.0,73,0.00,,,0.00,meteohub,2013-05-22 15:37:00,
2013-05-22 11:42:00,75.0,64.2,29.98,WNW,300,2.0,7.0,69,0.00,,,0.00,meteohub,2013-05-22 15:42:00,
2013-05-22 11:47:00,74.7,63.9,29.97,WNW,295,3.0,7.0,69,0.00,,,0.00,meteohub,2013-05-22 15:47:00,
2013-05-22 11:52:00,75.0,63.3,29.97,SSW,195,1.0,6.0,67,0.00,,,0.00,meteohub,2013-05-22 15:52:00,
2013-05-22 11:57:00,75.6,64.2,29.97,WSW,253,0.0,6.0,68,0.00,,,0.00,meteohub,2013-05-22 15:57:00,
2013-05-22 12:02:00,75.7,62.8,29.97,WNW,301,2.0,5.0,64,0.00,,,0.00,meteohub,2013-05-22 16:02:00,
2013-05-22 12:07:00,75.6,63.0,29.97,WNW,288,2.0,7.0,65,0.00,,,0.00,meteohub,2013-05-22 16:07:00,
2013-05-22 12:12:00,75.7,63.1,29.96,South,190,0.0,7.0,65,0.00,,,0.00,meteohub,2013-05-22 16:12:00,
2013-05-22 12:17:00,75.9,64.2,29.96,West,276,0.0,7.0,67,0.00,,,0.00,meteohub,2013-05-22 16:17:00,
2013-05-22 12:22:00,76.6,64.4,29.96,WNW,297,1.0,6.0,66,0.00,,,0.00,meteohub,2013-05-22 16:22:00,
2013-05-22 12:27:00,76.5,63.9,29.96,West,272,2.0,6.0,65,0.00,,,0.00,meteohub,2013-05-22 16:27:00,
2013-05-22 12:32:00,76.3,64.0,29.96,West,262,1.0,6.0,66,0.00,,,0.00,meteohub,2013-05-22 16:32:00,
2013-05-22 12:37:00,76.5,64.2,29.96,NW,310,2.0,6.0,66,0.00,,,0.00,meteohub,2013-05-22 16:37:00,
2013-05-22 12:42:00,75.7,64.4,29.96,WSW,239,0.0,6.0,68,0.00,,,0.00,meteohub,2013-05-22 16:42:00,
2013-05-22 12:47:00,75.7,64.4,29.96,NW,323,0.0,6.0,68,0.00,,,0.00,meteohub,2013-05-22 16:47:00,
2013-05-22 12:52:00,76.3,65.3,29.96,WNW,287,2.0,5.0,69,0.00,,,0.00,meteohub,2013-05-22 16:52:00,
2013-05-22 12:57:00,76.6,65.3,29.96,ESE,122,2.0,7.0,68,0.00,,,0.00,meteohub,2013-05-22 16:57:00,
2013-05-22 13:02:00,76.8,66.2,29.95,NW,305,0.0,7.0,70,0.00,,,0.00,meteohub,2013-05-22 17:02:00,
2013-05-22 13:07:00,77.0,65.7,29.95,SSW,192,3.0,7.0,68,0.00,,,0.00,meteohub,2013-05-22 17:07:00,
2013-05-22 13:12:00,76.8,65.8,29.94,WNW,294,3.0,9.0,69,0.00,,,0.00,meteohub,2013-05-22 17:12:00,
2013-05-22 13:17:00,76.8,65.5,29.95,West,271,3.0,11.0,68,0.00,,,0.00,meteohub,2013-05-22 17:17:00,
2013-05-22 13:22:00,76.5,65.5,29.94,SE,124,0.0,11.0,69,0.00,,,0.00,meteohub,2013-05-22 17:22:00,
2013-05-22 13:27:00,75.4,64.9,29.94,SSE,151,4.0,11.0,70,0.00,,,0.00,meteohub,2013-05-22 17:27:00,
2013-05-22 13:32:00,74.3,65.5,29.94,SSE,148,5.0,7.0,74,0.00,,,0.00,meteohub,2013-05-22 17:32:00,
2013-05-22 13:37:00,74.7,65.8,29.94,WNW,291,0.0,7.0,74,0.00,,,0.00,meteohub,2013-05-22 17:37:00,
2013-05-22 13:42:00,75.4,66.9,29.94,SW,236,0.0,9.0,75,0.00,,,0.00,meteohub,2013-05-22 17:42:00,
2013-05-22 13:47:00,75.6,65.8,29.94,South,184,5.0,9.0,72,0.00,,,0.00,meteohub,2013-05-22 17:47:00,
2013-05-22 13:52:00,75.0,65.8,29.94,SSW,205,2.0,9.0,73,0.00,,,0.00,meteohub,2013-05-22 17:52:00,
2013-05-22 13:57:00,74.8,66.0,29.94,SSW,205,6.0,9.0,74,0.00,,,0.00,meteohub,2013-05-22 17:57:00,
2013-05-22 14:02:00,74.3,65.8,29.94,WNW,286,1.0,10.0,75,0.00,,,0.00,meteohub,2013-05-22 18:02:00,
2013-05-22 14:07:00,73.8,66.0,29.94,West,281,0.0,10.0,77,0.00,,,0.00,meteohub,2013-05-22 18:07:00,
2013-05-22 14:12:00,73.6,65.5,29.94,East,89,1.0,10.0,76,0.00,,,0.00,meteohub,2013-05-22 18:12:00,
2013-05-22 14:17:00,73.4,66.2,29.94,NW,317,1.0,7.0,78,0.00,,,0.00,meteohub,2013-05-22 18:17:00,
2013-05-22 14:22:00,73.6,66.4,29.93,SSW,211,2.0,5.0,78,0.00,,,0.00,meteohub,2013-05-22 18:22:00,
2013-05-22 14:27:00,74.1,66.7,29.93,SW,236,0.0,6.0,78,0.00,,,0.00,meteohub,2013-05-22 18:27:00,
2013-05-22 14:32:00,74.8,66.0,29.93,West,270,2.0,6.0,74,0.00,,,0.00,meteohub,2013-05-22 18:32:00,
2013-05-22 14:37:00,74.8,66.4,29.93,NW,313,2.0,6.0,75,0.00,,,0.00,meteohub,2013-05-22 18:37:00,
2013-05-22 14:42:00,74.7,65.8,29.93,ESE,117,4.0,6.0,74,0.00,,,0.00,meteohub,2013-05-22 18:42:00,
2013-05-22 14:47:00,75.0,66.2,29.93,SSW,203,3.0,6.0,74,0.00,,,0.00,meteohub,2013-05-22 18:47:00,
2013-05-22 14:52:00,75.6,66.4,29.92,NE,49,0.0,10.0,73,0.00,,,0.00,meteohub,2013-05-22 18:52:00,
2013-05-22 14:57:00,75.4,65.7,29.92,NW,316,0.0,10.0,72,0.00,,,0.00,meteohub,2013-05-22 18:57:00,
2013-05-22 15:02:00,74.8,65.7,29.92,West,274,0.0,9.0,73,0.00,,,0.00,meteohub,2013-05-22 19:02:00,
2013-05-22 15:07:00,74.7,66.2,29.92,WSW,243,0.0,6.0,75,0.00,,,0.00,meteohub,2013-05-22 19:07:00,
2013-05-22 15:12:00,75.0,65.8,29.92,WSW,241,0.0,5.0,73,0.00,,,0.00,meteohub,2013-05-22 19:12:00,
2013-05-22 15:17:00,74.7,65.8,29.92,WSW,257,1.0,9.0,74,0.00,,,0.00,meteohub,2013-05-22 19:17:00,
2013-05-22 15:22:00,74.3,66.2,29.91,NW,315,0.0,9.0,76,0.00,,,0.00,meteohub,2013-05-22 19:22:00,
2013-05-22 15:27:00,74.5,66.0,29.91,SSW,195,7.0,9.0,75,0.00,,,0.00,meteohub,2013-05-22 19:27:00,
2013-05-22 15:32:00,74.1,65.7,29.90,WSW,241,1.0,11.0,75,0.00,,,0.00,meteohub,2013-05-22 19:32:00,
2013-05-22 15:37:00,74.5,66.0,29.90,NNW,335,2.0,11.0,75,0.00,,,0.00,meteohub,2013-05-22 19:37:00,
2013-05-22 15:41:00,74.7,65.8,29.90,WNW,290,0.0,11.0,74,0.00,,,0.00,meteohub,2013-05-22 19:41:00,
2013-05-22 15:46:00,74.1,65.7,29.90,WSW,249,0.0,8.0,75,0.00,,,0.00,meteohub,2013-05-22 19:46:00,
2013-05-22 15:52:00,74.3,65.8,29.89,SW,236,0.0,6.0,75,0.00,,,0.00,meteohub,2013-05-22 19:52:00,
2013-05-22 15:57:00,75.0,66.6,29.89,WSW,246,7.0,10.0,75,0.00,,,0.00,meteohub,2013-05-22 19:57:00,
2013-05-22 16:02:00,74.7,65.8,29.89,SW,225,1.0,10.0,74,0.00,,,0.00,meteohub,2013-05-22 20:02:00,
2013-05-22 16:07:00,73.9,65.5,29.89,NW,307,2.0,8.0,75,0.00,,,0.00,meteohub,2013-05-22 20:07:00,
2013-05-22 16:12:00,73.2,65.1,29.90,North,6,0.0,8.0,76,0.00,,,0.00,meteohub,2013-05-22 20:12:00,
2013-05-22 16:17:00,73.6,65.5,29.89,WNW,284,2.0,8.0,76,0.00,,,0.00,meteohub,2013-05-22 20:17:00,
2013-05-22 16:22:00,73.8,65.7,29.89,SSE,160,0.0,8.0,76,0.00,,,0.00,meteohub,2013-05-22 20:22:00,
2013-05-22 16:27:00,73.6,65.1,29.88,WSW,246,0.0,8.0,75,0.00,,,0.00,meteohub,2013-05-22 20:27:00,
2013-05-22 16:32:00,73.8,65.7,29.88,NW,308,0.0,5.0,76,0.00,,,0.00,meteohub,2013-05-22 20:32:00,
2013-05-22 16:37:00,73.6,65.1,29.88,WNW,283,0.0,3.0,75,0.00,,,0.00,meteohub,2013-05-22 20:37:00,
2013-05-22 16:42:00,73.0,64.9,29.88,WNW,288,2.0,3.0,76,0.00,,,0.00,meteohub,2013-05-22 20:42:00,
2013-05-22 16:47:00,72.0,62.1,29.88,WNW,300,0.0,6.0,71,0.00,,,0.00,meteohub,2013-05-22 20:47:00,
2013-05-22 16:52:00,70.5,61.0,29.88,WSW,255,0.0,6.0,72,0.00,,,0.00,meteohub,2013-05-22 20:52:00,
2013-05-22 16:57:00,69.6,60.3,29.89,West,264,1.0,6.0,72,0.00,,,0.00,meteohub,2013-05-22 20:57:00,
2013-05-22 17:02:00,68.4,59.0,29.90,West,276,4.0,5.0,72,0.00,,,0.00,meteohub,2013-05-22 21:02:00,
2013-05-22 17:07:00,66.9,58.3,29.91,WSW,256,3.0,5.0,74,0.00,,,0.00,meteohub,2013-05-22 21:07:00,
2013-05-22 17:12:00,64.2,57.9,29.90,ESE,117,0.0,8.0,80,0.06,,,0.06,meteohub,2013-05-22 21:12:00,
2013-05-22 17:17:00,62.4,57.9,29.89,NW,323,0.0,8.0,85,0.12,,,0.12,meteohub,2013-05-22 21:17:00,
2013-05-22 17:22:00,61.3,57.4,29.88,East,80,0.0,8.0,87,0.15,,,0.15,meteohub,2013-05-22 21:22:00,
2013-05-22 17:27:00,61.0,57.7,29.87,SW,218,0.0,6.0,89,0.18,,,0.18,meteohub,2013-05-22 21:27:00,
2013-05-22 17:32:00,60.8,57.9,29.86,SSW,203,0.0,1.0,90,0.18,,,0.18,meteohub,2013-05-22 21:32:00,
2013-05-22 17:37:00,60.8,58.1,29.86,SSW,203,0.0,1.0,91,0.18,,,0.18,meteohub,2013-05-22 21:37:00,
2013-05-22 17:42:00,61.2,58.8,29.86,SW,220,0.0,1.0,92,0.18,,,0.18,meteohub,2013-05-22 21:42:00,
2013-05-22 17:47:00,61.9,60.1,29.87,NNE,31,0.0,1.0,94,0.18,,,0.18,meteohub,2013-05-22 21:47:00,
2013-05-22 17:52:00,62.6,60.6,29.87,NNE,32,0.0,2.0,93,0.18,,,0.18,meteohub,2013-05-22 21:52:00,
2013-05-22 17:57:00,63.7,62.2,29.88,North,11,0.0,2.0,95,0.18,,,0.18,meteohub,2013-05-22 21:57:00,
2013-05-22 18:02:00,64.2,62.2,29.88,North,349,0.0,2.0,93,0.18,,,0.18,meteohub,2013-05-22 22:02:00,
2013-05-22 18:07:00,64.8,62.4,29.88,WSW,237,0.0,2.0,92,0.18,,,0.18,meteohub,2013-05-22 22:07:00,
2013-05-22 18:12:00,64.9,62.2,29.88,WNW,298,0.0,2.0,91,0.08,,,0.18,meteohub,2013-05-22 22:12:00,
2013-05-22 18:17:00,64.9,61.9,29.87,WNW,298,0.0,2.0,90,0.05,,,0.18,meteohub,2013-05-22 22:17:00,
2013-05-22 18:22:00,64.9,62.6,29.87,West,263,0.0,2.0,92,0.00,,,0.18,meteohub,2013-05-22 22:22:00,
2013-05-22 18:27:00,65.1,62.4,29.87,SW,219,0.0,2.0,91,0.00,,,0.18,meteohub,2013-05-22 22:27:00,
2013-05-22 18:32:00,65.1,62.8,29.88,SSW,197,0.0,2.0,92,0.00,,,0.18,meteohub,2013-05-22 22:32:00,
2013-05-22 18:37:00,65.1,62.4,29.89,WSW,255,0.0,2.0,91,0.00,,,0.18,meteohub,2013-05-22 22:37:00,
2013-05-22 18:42:00,65.3,63.0,29.89,SSW,193,0.0,1.0,92,0.00,,,0.18,meteohub,2013-05-22 22:42:00,
2013-05-22 18:47:00,65.5,62.4,29.89,SW,231,0.0,1.0,90,0.00,,,0.18,meteohub,2013-05-22 22:47:00,
2013-05-22 18:52:00,65.7,62.2,29.89,SE,136,0.0,1.0,89,0.00,,,0.18,meteohub,2013-05-22 22:52:00,
2013-05-22 18:57:00,65.8,62.8,29.89,SSW,201,2.0,2.0,90,0.00,,,0.18,meteohub,2013-05-22 22:57:00,
2013-05-22 19:02:00,65.8,62.8,29.89,SSW,209,2.0,4.0,90,0.00,,,0.18,meteohub,2013-05-22 23:02:00,
2013-05-22 19:07:00,65.8,63.1,29.89,South,190,5.0,5.0,91,0.00,,,0.18,meteohub,2013-05-22 23:07:00,
2013-05-22 19:12:00,64.9,59.9,29.89,West,273,6.0,6.0,84,0.08,,,0.26,meteohub,2013-05-22 23:12:00,
2013-05-22 19:17:00,64.2,60.6,29.88,West,262,1.0,16.0,88,0.34,,,0.52,meteohub,2013-05-22 23:17:00,
2013-05-22 19:22:00,64.0,61.0,29.88,SW,218,0.0,16.0,90,0.34,,,0.52,meteohub,2013-05-22 23:22:00,
2013-05-22 19:27:00,63.9,61.2,29.88,WSW,253,0.0,16.0,91,0.34,,,0.52,meteohub,2013-05-22 23:27:00,
2013-05-22 19:32:00,63.9,61.5,29.88,SW,215,1.0,6.0,92,0.34,,,0.52,meteohub,2013-05-22 23:32:00,
2013-05-22 19:37:00,63.7,61.3,29.89,SW,226,0.0,3.0,92,0.35,,,0.53,meteohub,2013-05-22 23:37:00,
2013-05-22 19:42:00,63.7,61.9,29.89,SW,231,0.0,2.0,94,0.43,,,0.61,meteohub,2013-05-22 23:42:00,
2013-05-22 19:47:00,63.7,61.9,29.89,SE,129,0.0,2.0,94,0.52,,,0.70,meteohub,2013-05-22 23:47:00,
2013-05-22 19:52:00,63.9,62.4,29.88,SSW,207,0.0,2.0,95,0.52,,,0.70,meteohub,2013-05-22 23:52:00,
2013-05-22 19:57:00,64.0,62.6,29.88,North,3,0.0,2.0,95,0.57,,,0.75,meteohub,2013-05-22 23:57:00,
2013-05-22 20:02:00,64.0,62.6,29.89,North,7,0.0,2.0,95,0.58,,,0.76,meteohub,2013-05-23 00:02:00,
2013-05-22 20:07:00,64.0,62.6,29.89,North,7,0.0,2.0,95,0.57,,,0.00,meteohub,2013-05-23 00:07:00,
2013-05-22 20:12:00,64.0,63.0,29.89,North,8,0.0,0.0,96,0.38,,,0.00,meteohub,2013-05-23 00:12:00,
2013-05-22 20:17:00,64.0,63.0,29.89,NNE,18,0.0,2.0,96,0.24,,,0.00,meteohub,2013-05-23 00:17:00,
2013-05-22 20:22:00,64.0,63.0,29.89,NNE,18,0.0,2.0,96,0.24,,,0.00,meteohub,2013-05-23 00:22:00,
2013-05-22 20:27:00,63.9,62.8,29.90,NE,52,1.0,2.0,96,0.24,,,0.00,meteohub,2013-05-23 00:27:00,
2013-05-22 20:32:00,63.9,62.8,29.90,NE,48,0.0,1.0,96,0.24,,,0.00,meteohub,2013-05-23 00:32:00,
2013-05-22 20:37:00,63.9,62.8,29.89,NE,48,0.0,1.0,96,0.22,,,0.00,meteohub,2013-05-23 00:37:00,
2013-05-22 20:42:00,63.9,62.8,29.89,South,176,4.0,4.0,96,0.10,,,0.04,meteohub,2013-05-23 00:42:00,
2013-05-22 20:47:00,63.5,62.1,29.89,SE,131,0.0,4.0,95,0.21,,,0.15,meteohub,2013-05-23 00:47:00,
2013-05-22 20:52:00,63.1,61.7,29.90,WSW,238,0.0,4.0,95,0.23,,,0.18,meteohub,2013-05-23 00:52:00,
2013-05-22 20:57:00,63.1,61.7,29.90,WSW,237,0.0,4.0,95,0.18,,,0.18,meteohub,2013-05-23 00:57:00,
2013-05-22 21:02:00,63.1,61.7,29.90,WSW,237,0.0,3.0,95,0.18,,,0.18,meteohub,2013-05-23 01:02:00,
2013-05-22 21:07:00,63.1,62.1,29.91,WSW,238,0.0,2.0,96,0.18,,,0.18,meteohub,2013-05-23 01:07:00,
2013-05-22 21:12:00,63.1,62.1,29.90,WSW,238,0.0,0.0,96,0.18,,,0.18,meteohub,2013-05-23 01:12:00,
2013-05-22 21:17:00,63.1,62.1,29.90,WSW,238,0.0,0.0,96,0.18,,,0.18,meteohub,2013-05-23 01:17:00,
2013-05-22 21:22:00,63.1,62.1,29.91,WSW,238,0.0,0.0,96,0.18,,,0.18,meteohub,2013-05-23 01:22:00,
2013-05-22 21:27:00,63.1,62.1,29.92,WSW,238,0.0,0.0,96,0.18,,,0.18,meteohub,2013-05-23 01:27:00,
2013-05-22 21:32:00,63.1,62.1,29.93,West,280,0.0,0.0,96,0.18,,,0.18,meteohub,2013-05-23 01:32:00,
2013-05-22 21:37:00,63.1,62.1,29.94,SW,217,2.0,2.0,96,0.18,,,0.18,meteohub,2013-05-23 01:37:00,
2013-05-22 21:42:00,63.0,61.9,29.94,NE,44,0.0,4.0,96,0.10,,,0.18,meteohub,2013-05-23 01:42:00,
2013-05-22 21:47:00,62.4,61.0,29.94,SE,139,0.0,6.0,95,0.01,,,0.19,meteohub,2013-05-23 01:47:00,
2013-05-22 21:52:00,61.5,59.5,29.93,SSE,163,0.0,6.0,93,0.03,,,0.21,meteohub,2013-05-23 01:52:00,
2013-05-22 21:57:00,61.0,59.0,29.93,SSW,211,0.0,6.0,93,0.06,,,0.24,meteohub,2013-05-23 01:57:00,
2013-05-22 22:02:00,60.4,58.5,29.93,SW,214,0.0,3.0,93,0.06,,,0.24,meteohub,2013-05-23 02:02:00,
2013-05-22 22:07:00,60.1,58.3,29.93,South,169,0.0,1.0,94,0.09,,,0.27,meteohub,2013-05-23 02:07:00,
2013-05-22 22:12:00,59.7,57.9,29.93,South,169,0.0,1.0,94,0.10,,,0.28,meteohub,2013-05-23 02:12:00,
2013-05-22 22:17:00,59.5,57.7,29.93,South,181,2.0,0.0,94,0.10,,,0.28,meteohub,2013-05-23 02:17:00,
2013-05-22 22:22:00,59.5,57.7,29.92,WSW,256,0.0,6.0,94,0.10,,,0.28,meteohub,2013-05-23 02:22:00,
2013-05-22 22:27:00,59.5,57.7,29.93,SSW,211,2.0,6.0,94,0.10,,,0.28,meteohub,2013-05-23 02:27:00,
2013-05-22 22:32:00,59.5,57.7,29.93,SSW,197,0.0,6.0,94,0.10,,,0.28,meteohub,2013-05-23 02:32:00,
2013-05-22 22:37:00,59.4,57.9,29.93,SSW,197,0.0,3.0,95,0.10,,,0.28,meteohub,2013-05-23 02:37:00,
2013-05-22 22:42:00,59.4,57.9,29.94,SSW,197,0.0,3.0,95,0.10,,,0.28,meteohub,2013-05-23 02:42:00,
2013-05-22 22:47:00,59.4,57.9,29.94,SSW,196,0.0,0.0,95,0.08,,,0.28,meteohub,2013-05-23 02:47:00,
2013-05-22 22:52:00,59.4,57.9,29.94,SSW,197,0.0,0.0,95,0.05,,,0.28,meteohub,2013-05-23 02:52:00,
2013-05-22 22:57:00,59.4,58.3,29.94,SW,217,0.0,0.0,96,0.04,,,0.28,meteohub,2013-05-23 02:57:00,
2013-05-22 23:02:00,59.5,58.5,29.94,WSW,241,0.0,1.0,96,0.03,,,0.28,meteohub,2013-05-23 03:02:00,
2013-05-22 23:07:00,59.7,58.6,29.94,NNW,347,0.0,1.0,96,0.01,,,0.28,meteohub,2013-05-23 03:07:00,
2013-05-22 23:12:00,59.7,58.6,29.93,North,350,0.0,1.0,96,0.00,,,0.28,meteohub,2013-05-23 03:12:00,
2013-05-22 23:17:00,60.1,59.2,29.93,NNE,18,1.0,1.0,97,0.00,,,0.28,meteohub,2013-05-23 03:17:00,
2013-05-22 23:22:00,60.3,59.4,29.93,NNE,24,1.0,2.0,97,0.00,,,0.28,meteohub,2013-05-23 03:22:00,
2013-05-22 23:27:00,60.4,59.5,29.93,NNE,23,0.0,2.0,97,0.01,,,0.29,meteohub,2013-05-23 03:27:00,
2013-05-22 23:32:00,60.4,59.5,29.93,North,6,0.0,2.0,97,0.01,,,0.29,meteohub,2013-05-23 03:32:00,
2013-05-22 23:37:00,60.4,59.5,29.93,North,6,0.0,1.0,97,0.01,,,0.29,meteohub,2013-05-23 03:37:00,
2013-05-22 23:42:00,60.6,59.7,29.93,North,6,0.0,1.0,97,0.01,,,0.29,meteohub,2013-05-23 03:42:00,
2013-05-22 23:47:00,60.6,59.7,29.93,North,6,0.0,0.0,97,0.01,,,0.29,meteohub,2013-05-23 03:47:00,
2013-05-22 23:52:00,60.6,59.7,29.92,North,6,0.0,0.0,97,0.01,,,0.29,meteohub,2013-05-23 03:52:00,
2013-05-22 23:57:00,60.6,59.7,29.92,North,6,0.0,0.0,97,0.01,,,0.29,meteohub,2013-05-23 03:57:00,